createdAt,value
2023-02-17T00:00:32.553Z,100935.09
2023-02-17T00:03:03.819Z,100918.28
2023-02-17T00:05:35.674Z,100910.78
2023-02-17T00:08:05.949Z,100923.88
2023-02-17T00:10:37.350Z,100909.78
2023-02-17T00:13:08.629Z,100925.84
2023-02-17T00:15:42.473Z,100917.03
2023-02-17T00:18:13.495Z,100920.31
2023-02-17T00:20:45.906Z,100894.91
2023-02-17T00:23:17.381Z,100917.66
2023-02-17T00:25:48.181Z,100915.75
2023-02-17T00:28:19.438Z,100917.28
2023-02-17T00:30:50.693Z,100910.56
2023-02-17T00:33:23.469Z,100902.75
2023-02-17T00:35:54.481Z,100913.44
2023-02-17T00:38:25.553Z,100915.31
2023-02-17T00:40:57.299Z,100907.22
2023-02-17T00:43:28.638Z,100917.19
2023-02-17T00:45:59.809Z,100919.66
2023-02-17T00:48:30.905Z,100915.19
2023-02-17T00:51:02.158Z,100912.06
2023-02-17T00:53:33.493Z,100917.94
2023-02-17T00:56:04.898Z,100924.50
2023-02-17T00:58:36.955Z,100920.38
2023-02-17T01:01:08.036Z,100929.13
2023-02-17T01:03:39.248Z,100933.16
2023-02-17T01:06:13.255Z,100922.03
2023-02-17T01:08:44.279Z,100933.38
2023-02-17T01:11:21.727Z,100932.22
2023-02-17T01:13:53.000Z,100925.25
2023-02-17T01:16:27.869Z,100913.25
2023-02-17T01:19:02.392Z,100925.78
2023-02-17T01:21:35.123Z,100926.88
2023-02-17T01:24:08.851Z,100930.63
2023-02-17T01:26:40.924Z,100921.31
2023-02-17T01:29:11.994Z,100921.53
2023-02-17T01:31:43.480Z,100918.47
2023-02-17T01:34:15.394Z,100927.44
2023-02-17T01:36:46.383Z,100919.78
2023-02-17T01:39:18.286Z,100909.69
2023-02-17T01:41:50.144Z,100917.25
2023-02-17T01:44:26.098Z,100922.03
2023-02-17T01:46:58.190Z,100916.16
2023-02-17T01:49:35.695Z,100916.34
2023-02-17T01:52:14.908Z,100899.94
2023-02-17T01:54:57.880Z,100910.25
2023-02-17T01:57:33.868Z,100914.31
2023-02-17T02:00:06.325Z,100902.84
2023-02-17T02:02:44.996Z,100916.44
2023-02-17T02:05:18.676Z,100911.75
2023-02-17T02:07:51.155Z,100898.25
2023-02-17T02:10:22.588Z,100902.28
2023-02-17T02:12:53.804Z,100897.09
2023-02-17T02:15:31.440Z,100914.16
2023-02-17T02:18:28.769Z,100899.78
2023-02-17T02:21:09.382Z,100904.78
2023-02-17T02:23:57.478Z,100899.78
2023-02-17T02:26:52.337Z,100887.31
2023-02-17T02:29:31.705Z,100900.53
2023-02-17T02:32:20.878Z,100889.94
2023-02-17T02:35:03.984Z,100892.97
2023-02-17T02:37:39.109Z,100897.31
2023-02-17T02:40:11.958Z,100896.28
2023-02-17T02:42:44.050Z,100885.75
2023-02-17T02:45:15.543Z,100901.59
2023-02-17T02:47:53.061Z,100900.97
2023-02-17T02:50:49.646Z,100896.44
2023-02-17T02:53:53.243Z,100890.84
2023-02-17T02:56:27.696Z,100898.75
2023-02-17T02:59:42.526Z,100888.47
2023-02-17T03:02:22.640Z,100884.94
2023-02-17T03:05:18.197Z,100884.13
2023-02-17T03:08:03.663Z,100894.09
2023-02-17T03:10:35.065Z,100891.97
2023-02-17T03:13:05.663Z,100887.94
2023-02-17T03:15:37.621Z,100887.63
2023-02-17T03:18:10.168Z,100873.59
2023-02-17T03:20:51.694Z,100867.25
2023-02-17T03:23:23.367Z,100870.19
2023-02-17T03:25:54.847Z,100896.34
2023-02-17T03:28:27.070Z,100891.16
2023-02-17T03:30:58.737Z,100885.56
2023-02-17T03:33:30.312Z,100889.25
2023-02-17T03:36:03.002Z,100859.50
2023-02-17T03:38:34.195Z,100871.00
2023-02-17T03:41:05.371Z,100865.03
2023-02-17T03:43:36.861Z,100871.84
2023-02-17T03:46:12.079Z,100875.09
2023-02-17T03:48:43.582Z,100889.59
2023-02-17T03:51:14.047Z,100882.25
2023-02-17T03:53:45.938Z,100885.78
2023-02-17T03:56:17.527Z,100876.94
2023-02-17T03:58:48.759Z,100891.09
2023-02-17T04:01:19.401Z,100888.69
2023-02-17T04:03:50.704Z,100877.81
2023-02-17T04:06:22.037Z,100882.88
2023-02-17T04:08:53.490Z,100889.06
2023-02-17T04:11:24.579Z,100882.34
2023-02-17T04:13:55.731Z,100871.91
2023-02-17T04:16:26.793Z,100884.81
2023-02-17T04:18:58.212Z,100883.25
2023-02-17T04:21:28.857Z,100883.28
2023-02-17T04:24:01.961Z,100880.09
2023-02-17T04:26:34.060Z,100882.34
2023-02-17T04:29:05.766Z,100885.53
2023-02-17T04:31:36.322Z,100886.28
2023-02-17T04:34:07.586Z,100867.97
2023-02-17T04:36:38.681Z,100888.34
2023-02-17T04:39:09.433Z,100891.28
2023-02-17T04:41:40.460Z,100875.47
2023-02-17T04:44:11.636Z,100884.63
2023-02-17T04:46:42.765Z,100884.84
2023-02-17T04:49:13.781Z,100894.00
2023-02-17T04:51:44.753Z,100886.28
2023-02-17T04:54:16.241Z,100884.13
2023-02-17T04:56:47.373Z,100892.41
2023-02-17T04:59:18.574Z,100892.34
2023-02-17T05:01:50.095Z,100885.13
2023-02-17T05:04:22.158Z,100879.72
2023-02-17T05:06:53.375Z,100888.81
2023-02-17T05:09:24.477Z,100894.22
2023-02-17T05:11:55.510Z,100894.31
2023-02-17T05:14:26.708Z,100894.16
2023-02-17T05:16:57.868Z,100889.06
2023-02-17T05:19:28.957Z,100899.13
2023-02-17T05:22:00.169Z,100903.94
2023-02-17T05:24:31.363Z,100909.34
2023-02-17T05:27:03.269Z,100901.59
2023-02-17T05:29:34.453Z,100901.44
2023-02-17T05:32:05.508Z,100899.97
2023-02-17T05:34:37.460Z,100898.34
2023-02-17T05:37:08.918Z,100900.94
2023-02-17T05:39:40.152Z,100901.34
2023-02-17T05:42:11.320Z,100899.81
2023-02-17T05:44:42.332Z,100911.56
2023-02-17T05:47:13.407Z,100909.19
2023-02-17T05:49:44.329Z,100908.22
2023-02-17T05:52:16.608Z,100913.41
2023-02-17T05:54:47.700Z,100905.63
2023-02-17T05:57:18.476Z,100915.84
2023-02-17T05:59:49.536Z,100926.53
2023-02-17T06:02:20.857Z,100921.84
2023-02-17T06:04:52.462Z,100924.09
2023-02-17T06:07:23.582Z,100913.25
2023-02-17T06:09:54.608Z,100921.03
2023-02-17T06:12:25.920Z,100903.22
2023-02-17T06:14:57.344Z,100931.31
2023-02-17T06:17:28.831Z,100927.97
2023-02-17T06:19:59.372Z,100926.38
2023-02-17T06:22:30.253Z,100941.38
2023-02-17T06:25:01.470Z,100933.13
2023-02-17T06:27:33.676Z,100945.88
2023-02-17T06:30:05.253Z,100944.41
2023-02-17T06:32:36.317Z,100944.59
2023-02-17T06:35:07.613Z,100950.56
2023-02-17T06:37:38.938Z,100952.81
2023-02-17T06:40:09.888Z,100955.94
2023-02-17T06:42:40.961Z,100962.75
2023-02-17T06:45:12.359Z,100957.09
2023-02-17T06:47:43.587Z,100955.28
2023-02-17T06:50:14.933Z,100969.44
2023-02-17T06:52:45.549Z,100974.16
2023-02-17T06:55:16.466Z,100967.59
2023-02-17T06:57:47.425Z,100971.13
2023-02-17T07:00:18.987Z,100975.19
2023-02-17T07:02:50.192Z,100988.78
2023-02-17T07:05:21.376Z,100987.31
2023-02-17T07:07:54.691Z,100993.19
2023-02-17T07:10:25.905Z,100993.97
2023-02-17T07:12:56.907Z,100998.41
2023-02-17T07:15:28.306Z,101003.66
2023-02-17T07:17:59.339Z,100997.84
2023-02-17T07:20:30.842Z,101014.50
2023-02-17T07:23:02.960Z,101020.19
2023-02-17T07:25:34.770Z,101017.56
2023-02-17T07:28:06.637Z,101015.19
2023-02-17T07:30:45.032Z,101031.31
2023-02-17T07:33:16.396Z,101030.59
2023-02-17T07:35:47.555Z,101027.09
2023-02-17T07:38:18.806Z,101028.75
2023-02-17T07:40:50.061Z,101035.28
2023-02-17T07:43:21.323Z,101040.28
2023-02-17T07:45:59.258Z,101037.00
2023-02-17T07:48:30.607Z,101032.63
2023-02-17T07:51:10.799Z,101051.19
2023-02-17T07:53:42.335Z,101035.25
2023-02-17T07:56:16.172Z,101058.41
2023-02-17T07:58:48.007Z,101067.50
2023-02-17T08:01:21.763Z,101053.75
2023-02-17T08:03:53.438Z,101072.75
2023-02-17T08:06:25.014Z,101078.72
2023-02-17T08:09:14.825Z,101082.94
2023-02-17T08:12:06.013Z,101091.56
2023-02-17T08:14:38.728Z,101088.63
2023-02-17T08:17:10.393Z,101094.69
2023-02-17T08:19:48.334Z,101103.00
2023-02-17T08:22:20.631Z,101102.53
2023-02-17T08:24:52.219Z,101105.00
2023-02-17T08:27:23.848Z,101111.28
2023-02-17T08:29:56.099Z,101115.38
2023-02-17T08:32:26.783Z,101120.56
2023-02-17T08:34:58.721Z,101124.38
2023-02-17T08:37:29.893Z,101122.44
2023-02-17T08:40:00.971Z,101133.44
2023-02-17T08:42:34.573Z,101135.06
2023-02-17T08:45:06.936Z,101139.22
2023-02-17T08:47:38.859Z,101140.97
2023-02-17T08:50:12.372Z,101142.34
2023-02-17T08:52:43.819Z,101143.25
2023-02-17T08:55:16.590Z,101151.97
2023-02-17T08:57:47.866Z,101162.13
2023-02-17T09:00:20.366Z,101161.13
2023-02-17T09:02:51.981Z,101165.78
2023-02-17T09:05:23.116Z,101165.47
2023-02-17T09:07:54.067Z,101171.28
2023-02-17T09:10:25.376Z,101163.69
2023-02-17T09:12:56.698Z,101183.00
2023-02-17T09:15:27.956Z,101183.59
2023-02-17T09:17:59.390Z,101188.53
2023-02-17T09:20:31.304Z,101192.06
2023-02-17T09:23:02.757Z,101186.88
2023-02-17T09:25:33.905Z,101176.28
2023-02-17T09:28:04.905Z,101191.81
2023-02-17T09:30:36.643Z,101204.34
2023-02-17T09:33:08.206Z,101203.78
2023-02-17T09:35:39.585Z,101201.63
2023-02-17T09:38:11.700Z,101210.38
2023-02-17T09:40:51.175Z,101213.09
2023-02-17T09:43:27.482Z,101208.72
2023-02-17T09:46:05.260Z,101217.44
2023-02-17T09:48:37.163Z,101220.69
2023-02-17T09:51:20.830Z,101235.41
2023-02-17T09:53:58.792Z,101235.66
2023-02-17T09:56:35.538Z,101240.03
2023-02-17T09:59:14.077Z,101216.31
2023-02-17T10:01:45.768Z,101231.03
2023-02-17T10:04:23.797Z,101247.34
2023-02-17T10:07:03.814Z,101254.94
2023-02-17T10:09:39.157Z,101250.03
2023-02-17T10:12:15.242Z,101252.75
2023-02-17T10:14:56.233Z,101251.63
2023-02-17T10:17:51.677Z,101263.63
2023-02-17T10:20:26.974Z,101257.06
2023-02-17T10:23:07.555Z,101256.53
2023-02-17T10:26:15.748Z,101260.63
2023-02-17T10:28:53.742Z,101261.31
2023-02-17T10:31:31.051Z,101267.34
2023-02-17T10:34:06.271Z,101271.94
2023-02-17T10:36:59.059Z,101274.63
2023-02-17T10:39:50.497Z,101272.19
2023-02-17T10:42:42.249Z,101284.66
2023-02-17T10:45:25.842Z,101280.31
2023-02-17T10:48:05.975Z,101278.13
2023-02-17T10:50:39.464Z,101281.81
2023-02-17T10:53:35.572Z,101274.75
2023-02-17T10:56:20.726Z,101261.88
2023-02-17T10:59:35.866Z,101276.00
2023-02-17T11:02:42.346Z,101277.94
2023-02-17T11:05:30.611Z,101271.91
2023-02-17T11:08:21.571Z,101275.72
2023-02-17T11:11:02.079Z,101267.63
2023-02-17T11:14:07.397Z,101271.16
2023-02-17T11:16:48.532Z,101271.97
2023-02-17T11:19:38.359Z,101277.94
2023-02-17T11:22:41.778Z,101282.81
2023-02-17T11:25:36.367Z,101277.88
2023-02-17T11:28:12.916Z,101291.97
2023-02-17T11:30:52.519Z,101290.50
2023-02-17T11:33:41.927Z,101290.19
2023-02-17T11:36:28.436Z,101286.41
2023-02-17T11:39:02.092Z,101282.25
2023-02-17T11:41:42.399Z,101278.56
2023-02-17T11:44:14.242Z,101290.19
2023-02-17T11:46:57.400Z,101291.09
2023-02-17T11:49:48.537Z,101296.88
2023-02-17T11:52:37.863Z,101294.03
2023-02-17T11:55:09.385Z,101293.63
2023-02-17T11:57:47.264Z,101297.09
2023-02-17T12:00:20.765Z,101301.59
2023-02-17T12:03:01.825Z,101302.97
2023-02-17T12:05:51.193Z,101298.78
2023-02-17T12:08:47.662Z,101303.94
2023-02-17T12:11:41.050Z,101307.91
2023-02-17T12:14:40.378Z,101298.06
2023-02-17T12:18:08.047Z,101304.47
2023-02-17T12:21:18.786Z,101291.50
2023-02-17T12:24:03.121Z,101302.41
2023-02-17T12:26:49.675Z,101301.28
2023-02-17T12:29:44.368Z,101307.28
2023-02-17T12:32:40.286Z,101299.56
2023-02-17T12:35:42.551Z,101303.50
2023-02-17T12:38:20.384Z,101302.81
2023-02-17T12:41:11.762Z,101296.25
2023-02-17T12:43:49.411Z,101296.25
2023-02-17T12:46:47.201Z,101298.34
2023-02-17T12:49:31.255Z,101303.50
2023-02-17T12:52:12.704Z,101302.69
2023-02-17T12:55:14.028Z,101300.19
2023-02-17T12:58:14.080Z,101307.47
2023-02-17T13:00:53.337Z,101306.47
2023-02-17T13:03:24.954Z,101304.53
2023-02-17T13:06:05.705Z,101298.81
2023-02-17T13:08:40.040Z,101297.72
2023-02-17T13:11:33.829Z,101301.44
2023-02-17T13:14:26.800Z,101303.56
2023-02-17T13:16:58.150Z,101304.25
2023-02-17T13:19:34.573Z,101295.38
2023-02-17T13:22:07.041Z,101307.41
2023-02-17T13:24:41.377Z,101308.28
2023-02-17T13:27:23.283Z,101301.00
2023-02-17T13:30:20.598Z,101309.19
2023-02-17T13:33:05.435Z,101319.88
2023-02-17T13:35:38.754Z,101311.75
2023-02-17T13:38:12.866Z,101306.19
2023-02-17T13:40:45.917Z,101320.59
2023-02-17T13:43:19.237Z,101314.81
2023-02-17T13:45:53.235Z,101318.53
2023-02-17T13:48:24.694Z,101315.38
2023-02-17T13:50:59.395Z,101313.50
2023-02-17T13:53:38.052Z,101326.81
2023-02-17T13:56:28.374Z,101323.69
2023-02-17T13:59:20.717Z,101326.31
2023-02-17T14:01:52.439Z,101318.13
2023-02-17T14:04:25.977Z,101333.06
2023-02-17T14:07:04.261Z,101331.41
2023-02-17T14:09:36.910Z,101329.09
2023-02-17T14:12:25.128Z,101336.75
2023-02-17T14:14:56.321Z,101335.91
2023-02-17T14:17:36.754Z,101333.88
2023-02-17T14:20:09.049Z,101338.91
2023-02-17T14:22:40.250Z,101335.91
2023-02-17T14:25:16.700Z,101338.31
2023-02-17T14:27:49.700Z,101341.09
2023-02-17T14:30:41.069Z,101339.53
2023-02-17T14:33:21.716Z,101334.47
2023-02-17T14:35:53.328Z,101338.97
2023-02-17T14:38:27.923Z,101339.78
2023-02-17T14:41:02.593Z,101344.28
2023-02-17T14:43:33.662Z,101348.97
2023-02-17T14:46:05.991Z,101347.06
2023-02-17T14:48:42.180Z,101339.75
2023-02-17T14:51:37.297Z,101339.94
2023-02-17T14:54:19.441Z,101343.31
2023-02-17T14:56:54.280Z,101348.38
2023-02-17T14:59:25.621Z,101342.88
2023-02-17T15:01:57.207Z,101339.00
2023-02-17T15:04:28.461Z,101359.78
2023-02-17T15:06:59.555Z,101351.94
2023-02-17T15:09:34.343Z,101348.94
2023-02-17T15:12:07.363Z,101356.97
2023-02-17T15:14:38.368Z,101363.13
2023-02-17T15:17:10.134Z,101361.78
2023-02-17T15:19:41.334Z,101363.31
2023-02-17T15:22:14.198Z,101359.31
2023-02-17T15:24:45.453Z,101344.78
2023-02-17T15:27:18.323Z,101367.41
2023-02-17T15:29:49.529Z,101352.22
2023-02-17T15:32:21.142Z,101372.88
2023-02-17T15:34:52.412Z,101367.41
2023-02-17T15:37:27.227Z,101374.69
2023-02-17T15:39:58.342Z,101376.09
2023-02-17T15:42:29.684Z,101375.66
2023-02-17T15:45:00.872Z,101375.31
2023-02-17T15:47:33.405Z,101369.88
2023-02-17T15:50:04.874Z,101387.91
2023-02-17T15:52:36.419Z,101385.31
2023-02-17T15:55:08.268Z,101384.34
2023-02-17T15:57:41.715Z,101386.94
2023-02-17T16:00:25.354Z,101389.91
2023-02-17T16:02:56.999Z,101388.50
2023-02-17T16:05:30.929Z,101395.63
2023-02-17T16:08:02.567Z,101402.16
2023-02-17T16:10:34.628Z,101395.03
2023-02-17T16:13:06.434Z,101407.38
2023-02-17T16:15:39.028Z,101405.84
2023-02-17T16:18:25.089Z,101404.56
2023-02-17T16:20:56.116Z,101396.81
2023-02-17T16:23:27.467Z,101411.50
2023-02-17T16:25:58.842Z,101420.06
2023-02-17T16:28:30.520Z,101425.34
2023-02-17T16:31:01.651Z,101412.22
2023-02-17T16:33:32.843Z,101419.81
2023-02-17T16:36:04.535Z,101407.72
2023-02-17T16:38:36.532Z,101423.03
2023-02-17T16:41:09.233Z,101423.50
2023-02-17T16:43:40.548Z,101429.34
2023-02-17T16:46:22.382Z,101431.00
2023-02-17T16:48:53.339Z,101431.88
2023-02-17T16:51:24.646Z,101438.91
2023-02-17T16:53:55.971Z,101431.63
2023-02-17T16:56:32.531Z,101422.59
2023-02-17T16:59:04.018Z,101442.41
2023-02-17T17:01:35.020Z,101447.72
2023-02-17T17:04:06.898Z,101443.25
2023-02-17T17:06:39.607Z,101451.25
2023-02-17T17:09:11.075Z,101448.44
2023-02-17T17:11:42.513Z,101454.97
2023-02-17T17:14:14.142Z,101438.91
2023-02-17T17:16:51.515Z,101465.09
2023-02-17T17:19:23.346Z,101464.53
2023-02-17T17:21:54.598Z,101469.72
2023-02-17T17:24:25.993Z,101471.25
2023-02-17T17:26:57.375Z,101480.59
2023-02-17T17:29:28.400Z,101483.69
2023-02-17T17:31:59.581Z,101490.38
2023-02-17T17:34:30.746Z,101494.38
2023-02-17T17:37:02.176Z,101501.56
2023-02-17T17:39:34.210Z,101491.69
2023-02-17T17:42:06.828Z,101497.91
2023-02-17T17:44:37.816Z,101505.94
2023-02-17T17:47:09.236Z,101500.19
2023-02-17T17:49:40.582Z,101509.56
2023-02-17T17:52:11.948Z,101511.53
2023-02-17T17:54:44.659Z,101511.44
2023-02-17T17:57:15.741Z,101514.16
2023-02-17T17:59:46.973Z,101513.56
2023-02-17T18:02:18.488Z,101525.19
2023-02-17T18:04:49.780Z,101519.19
2023-02-17T18:07:21.279Z,101529.06
2023-02-17T18:09:52.537Z,101524.81
2023-02-17T18:12:24.164Z,101546.09
2023-02-17T18:14:57.062Z,101545.53
2023-02-17T18:17:28.424Z,101546.81
2023-02-17T18:19:59.721Z,101551.75
2023-02-17T18:22:31.176Z,101552.22
2023-02-17T18:25:02.487Z,101553.59
2023-02-17T18:27:39.039Z,101554.19
2023-02-17T18:30:11.173Z,101567.63
2023-02-17T18:32:44.042Z,101563.50
2023-02-17T18:35:15.659Z,101572.06
2023-02-17T18:37:47.756Z,101569.03
2023-02-17T18:40:21.720Z,101570.50
2023-02-17T18:42:52.682Z,101557.22
2023-02-17T18:45:25.000Z,101571.28
2023-02-17T18:47:56.448Z,101571.28
2023-02-17T18:50:28.154Z,101571.66
2023-02-17T18:52:59.279Z,101572.00
2023-02-17T18:55:30.396Z,101573.03
2023-02-17T18:58:01.531Z,101567.19
2023-02-17T19:00:32.549Z,101569.09
2023-02-17T19:03:03.706Z,101587.56
2023-02-17T19:05:35.159Z,101581.47
2023-02-17T19:08:06.468Z,101585.50
2023-02-17T19:10:37.798Z,101592.06
2023-02-17T19:13:08.708Z,101584.91
2023-02-17T19:15:39.886Z,101589.25
2023-02-17T19:18:11.383Z,101603.59
2023-02-17T19:20:46.420Z,101597.63
2023-02-17T19:23:17.675Z,101599.38
2023-02-17T19:25:48.828Z,101607.88
2023-02-17T19:28:19.969Z,101607.56
2023-02-17T19:30:51.390Z,101617.56
2023-02-17T19:33:22.529Z,101616.63
2023-02-17T19:35:54.480Z,101615.88
2023-02-17T19:38:24.924Z,101625.47
2023-02-17T19:40:56.653Z,101625.41
2023-02-17T19:43:27.846Z,101632.53
2023-02-17T19:45:59.356Z,101637.94
2023-02-17T19:48:30.665Z,101647.09
2023-02-17T19:51:03.726Z,101646.44
2023-02-17T19:53:35.829Z,101646.00
2023-02-17T19:56:21.095Z,101651.16
2023-02-17T19:58:52.663Z,101640.84
2023-02-17T20:01:27.283Z,101651.63
2023-02-17T20:04:00.108Z,101646.06
2023-02-17T20:06:51.145Z,101654.19
2023-02-17T20:09:24.184Z,101654.19
2023-02-17T20:11:55.596Z,101656.94
2023-02-17T20:14:26.905Z,101654.19
2023-02-17T20:16:58.034Z,101655.22
2023-02-17T20:19:30.215Z,101664.25
2023-02-17T20:22:02.610Z,101660.72
2023-02-17T20:24:34.280Z,101650.56
2023-02-17T20:27:05.550Z,101661.50
2023-02-17T20:29:37.763Z,101647.97
2023-02-17T20:32:09.864Z,101662.03
2023-02-17T20:34:42.285Z,101660.31
2023-02-17T20:37:13.417Z,101669.72
2023-02-17T20:39:44.693Z,101673.94
2023-02-17T20:42:16.204Z,101671.06
2023-02-17T20:44:50.249Z,101675.97
2023-02-17T20:47:21.457Z,101677.88
2023-02-17T20:49:52.685Z,101686.63
2023-02-17T20:52:24.004Z,101687.06
2023-02-17T20:54:55.140Z,101679.88
2023-02-17T20:57:26.460Z,101685.31
2023-02-17T20:59:57.909Z,101694.19
2023-02-17T21:02:29.303Z,101677.78
2023-02-17T21:05:00.470Z,101677.59
2023-02-17T21:07:33.061Z,101679.94
2023-02-17T21:10:04.143Z,101688.53
2023-02-17T21:12:35.394Z,101666.00
2023-02-17T21:15:06.486Z,101663.31
2023-02-17T21:17:38.246Z,101692.78
2023-02-17T21:20:11.180Z,101690.56
2023-02-17T21:22:42.884Z,101688.78
2023-02-17T21:25:14.097Z,101688.78
2023-02-17T21:27:45.021Z,101687.69
2023-02-17T21:30:16.716Z,101685.94
2023-02-17T21:32:47.966Z,101688.94
2023-02-17T21:35:19.423Z,101686.09
2023-02-17T21:37:50.853Z,101688.22
2023-02-17T21:40:22.059Z,101687.38
2023-02-17T21:43:11.846Z,101681.81
2023-02-17T21:45:45.988Z,101667.88
2023-02-17T21:48:17.014Z,101684.19
2023-02-17T21:50:47.915Z,101683.16
2023-02-17T21:53:19.103Z,101683.50
2023-02-17T21:55:50.341Z,101681.13
2023-02-17T21:58:21.860Z,101683.38
2023-02-17T22:00:52.774Z,101690.19
2023-02-17T22:03:23.968Z,101689.16
2023-02-17T22:05:54.602Z,101682.59
2023-02-17T22:08:26.517Z,101682.94
2023-02-17T22:10:57.937Z,101688.75
2023-02-17T22:13:29.231Z,101682.84
2023-02-17T22:16:00.882Z,101688.50
2023-02-17T22:18:32.061Z,101686.69
2023-02-17T22:21:03.121Z,101692.91
2023-02-17T22:23:33.829Z,101689.06
2023-02-17T22:26:12.060Z,101690.50
2023-02-17T22:28:43.248Z,101691.38
2023-02-17T22:31:14.808Z,101689.34
2023-02-17T22:33:46.171Z,101689.06
2023-02-17T22:36:23.533Z,101689.38
2023-02-17T22:38:55.498Z,101683.75
2023-02-17T22:41:27.804Z,101676.91
2023-02-17T22:43:59.631Z,101679.16
2023-02-17T22:46:31.446Z,101684.31
2023-02-17T22:49:03.481Z,101682.44
2023-02-17T22:51:39.040Z,101683.41
2023-02-17T22:54:10.981Z,101679.59
2023-02-17T22:56:42.556Z,101680.81
2023-02-17T22:59:13.259Z,101674.53
2023-02-17T23:01:44.731Z,101674.59
2023-02-17T23:04:16.755Z,101667.81
2023-02-17T23:06:48.225Z,101668.19
2023-02-17T23:09:20.613Z,101667.97
2023-02-17T23:11:51.964Z,101669.44
2023-02-17T23:14:42.966Z,101654.53
2023-02-17T23:17:15.076Z,101649.25
2023-02-17T23:19:46.629Z,101654.59
2023-02-17T23:22:18.455Z,101648.28
2023-02-17T23:24:50.249Z,101655.09
2023-02-17T23:27:21.816Z,101637.09
2023-02-17T23:29:53.661Z,101648.91
2023-02-17T23:32:24.893Z,101650.47
2023-02-17T23:34:55.320Z,101642.81
2023-02-17T23:37:26.480Z,101630.88
2023-02-17T23:39:57.495Z,101638.88
2023-02-17T23:42:28.973Z,101616.72
2023-02-17T23:45:00.661Z,101634.97
2023-02-17T23:47:33.772Z,101633.72
2023-02-17T23:50:05.408Z,101629.13
2023-02-17T23:52:36.923Z,101628.66
2023-02-17T23:55:08.796Z,101624.88
2023-02-17T23:57:43.227Z,101622.25
